< < Back
Terminal Aerodrome Forecast


Current Version              Previous Versions:   1  2  3  4  5  6  7  8  9  

Terminal Aerodrome Forecast

990
FTUS44 KOHX 270800 AAB
TAFBNA
TAF AMD
KBNA 270800Z 2708/2806 36005KT P6SM BKN030
     FM271000 35008KT P6SM SKC
     FM271200 35007KT P6SM OVC100
     FM271800 34010G18KT P6SM BKN050 OVC100
     FM280300 34006KT P6SM SKC=



Latest METAR

243
SAUS70 KWBC 272200 RRK
MTRBNA
METAR KBNA 272153Z 32007KT 10SM BKN025 OVC037 06/02 A3002 RMK AO2
RAB2056E51 SLP167 P0001 T00560022


USA.gov is the U.S. government's official web portal to all federal, state and local government web resources and services.